sensor_id;sensor_type;location;lat;lon;timestamp;P1;durP1;ratioP1;P2;durP2;ratioP2
52542;SDS011;38449;52.696;6.186;2023-08-12T00:00:48;8.77;;;5.82;;
52542;SDS011;38449;52.696;6.186;2023-08-12T00:03:14;10.07;;;6.47;;
52542;SDS011;38449;52.696;6.186;2023-08-12T00:05:40;9.23;;;6.43;;
52542;SDS011;38449;52.696;6.186;2023-08-12T00:08:09;9.13;;;6.32;;
52542;SDS011;38449;52.696;6.186;2023-08-12T00:10:35;11.30;;;7.07;;
52542;SDS011;38449;52.696;6.186;2023-08-12T00:13:01;10.40;;;6.63;;
52542;SDS011;38449;52.696;6.186;2023-08-12T00:15:28;10.10;;;6.68;;
52542;SDS011;38449;52.696;6.186;2023-08-12T00:17:54;8.73;;;6.45;;
52542;SDS011;38449;52.696;6.186;2023-08-12T00:20:23;13.00;;;7.25;;
52542;SDS011;38449;52.696;6.186;2023-08-12T00:22:50;9.77;;;6.80;;
52542;SDS011;38449;52.696;6.186;2023-08-12T00:25:16;9.57;;;6.35;;
52542;SDS011;38449;52.696;6.186;2023-08-12T00:27:42;12.00;;;6.70;;
52542;SDS011;38449;52.696;6.186;2023-08-12T00:30:09;10.23;;;6.63;;
52542;SDS011;38449;52.696;6.186;2023-08-12T00:32:35;11.30;;;7.93;;
52542;SDS011;38449;52.696;6.186;2023-08-12T00:35:02;11.00;;;6.95;;
52542;SDS011;38449;52.696;6.186;2023-08-12T00:37:28;10.82;;;7.07;;
52542;SDS011;38449;52.696;6.186;2023-08-12T00:39:54;9.82;;;6.88;;
52542;SDS011;38449;52.696;6.186;2023-08-12T00:42:21;9.57;;;7.53;;
52542;SDS011;38449;52.696;6.186;2023-08-12T00:44:47;9.88;;;6.95;;
52542;SDS011;38449;52.696;6.186;2023-08-12T00:47:16;10.82;;;7.05;;
52542;SDS011;38449;52.696;6.186;2023-08-12T00:49:44;11.00;;;7.05;;
52542;SDS011;38449;52.696;6.186;2023-08-12T00:52:14;10.55;;;7.00;;
52542;SDS011;38449;52.696;6.186;2023-08-12T00:54:42;10.60;;;6.93;;
52542;SDS011;38449;52.696;6.186;2023-08-12T00:57:09;10.05;;;7.13;;
52542;SDS011;38449;52.696;6.186;2023-08-12T00:59:35;11.40;;;6.95;;
52542;SDS011;38449;52.696;6.186;2023-08-12T01:02:05;11.05;;;7.32;;
52542;SDS011;38449;52.696;6.186;2023-08-12T01:04:31;11.68;;;6.85;;
52542;SDS011;38449;52.696;6.186;2023-08-12T01:06:57;11.63;;;7.13;;
52542;SDS011;38449;52.696;6.186;2023-08-12T01:09:24;9.75;;;7.03;;
52542;SDS011;38449;52.696;6.186;2023-08-12T01:11:54;9.75;;;6.80;;
52542;SDS011;38449;52.696;6.186;2023-08-12T01:14:35;10.02;;;7.45;;
52542;SDS011;38449;52.696;6.186;2023-08-12T01:17:17;11.02;;;7.25;;
52542;SDS011;38449;52.696;6.186;2023-08-12T01:19:59;10.35;;;7.18;;
52542;SDS011;38449;52.696;6.186;2023-08-12T01:22:28;11.75;;;7.10;;
52542;SDS011;38449;52.696;6.186;2023-08-12T01:24:58;11.85;;;7.45;;
52542;SDS011;38449;52.696;6.186;2023-08-12T01:27:25;10.32;;;7.38;;
52542;SDS011;38449;52.696;6.186;2023-08-12T01:29:52;10.00;;;7.85;;
52542;SDS011;38449;52.696;6.186;2023-08-12T01:32:32;11.57;;;7.68;;
52542;SDS011;38449;52.696;6.186;2023-08-12T01:37:47;13.30;;;7.82;;
52542;SDS011;38449;52.696;6.186;2023-08-12T01:40:17;10.23;;;8.27;;
52542;SDS011;38449;52.696;6.186;2023-08-12T01:42:45;12.10;;;8.52;;
52542;SDS011;38449;52.696;6.186;2023-08-12T01:45:14;13.43;;;8.10;;
52542;SDS011;38449;52.696;6.186;2023-08-12T01:47:43;12.52;;;8.32;;
52542;SDS011;38449;52.696;6.186;2023-08-12T01:50:10;10.93;;;8.15;;
52542;SDS011;38449;52.696;6.186;2023-08-12T01:52:38;15.30;;;8.15;;
52542;SDS011;38449;52.696;6.186;2023-08-12T01:55:04;12.20;;;8.40;;
52542;SDS011;38449;52.696;6.186;2023-08-12T01:57:32;12.90;;;8.38;;
52542;SDS011;38449;52.696;6.186;2023-08-12T02:00:00;11.10;;;8.50;;
52542;SDS011;38449;52.696;6.186;2023-08-12T02:02:27;11.48;;;8.50;;
52542;SDS011;38449;52.696;6.186;2023-08-12T02:04:54;11.85;;;8.45;;
52542;SDS011;38449;52.696;6.186;2023-08-12T02:07:21;12.85;;;8.60;;
52542;SDS011;38449;52.696;6.186;2023-08-12T02:09:47;13.35;;;9.32;;
52542;SDS011;38449;52.696;6.186;2023-08-12T02:12:13;13.27;;;8.60;;
52542;SDS011;38449;52.696;6.186;2023-08-12T02:14:40;13.55;;;8.35;;
52542;SDS011;38449;52.696;6.186;2023-08-12T02:17:06;12.95;;;8.43;;
52542;SDS011;38449;52.696;6.186;2023-08-12T02:19:35;10.93;;;8.48;;
52542;SDS011;38449;52.696;6.186;2023-08-12T02:22:02;13.77;;;9.52;;
52542;SDS011;38449;52.696;6.186;2023-08-12T02:24:29;11.52;;;9.15;;
52542;SDS011;38449;52.696;6.186;2023-08-12T02:26:56;13.10;;;8.95;;
52542;SDS011;38449;52.696;6.186;2023-08-12T02:29:23;14.90;;;9.60;;
52542;SDS011;38449;52.696;6.186;2023-08-12T02:31:51;15.82;;;8.77;;
52542;SDS011;38449;52.696;6.186;2023-08-12T02:34:21;13.80;;;9.40;;
52542;SDS011;38449;52.696;6.186;2023-08-12T02:36:47;11.18;;;8.68;;
52542;SDS011;38449;52.696;6.186;2023-08-12T02:39:15;13.48;;;9.10;;
52542;SDS011;38449;52.696;6.186;2023-08-12T02:41:42;12.15;;;8.60;;
52542;SDS011;38449;52.696;6.186;2023-08-12T02:44:08;13.30;;;8.68;;
52542;SDS011;38449;52.696;6.186;2023-08-12T02:46:35;13.23;;;9.45;;
52542;SDS011;38449;52.696;6.186;2023-08-12T02:49:01;13.30;;;8.23;;
52542;SDS011;38449;52.696;6.186;2023-08-12T02:51:27;15.02;;;8.27;;
52542;SDS011;38449;52.696;6.186;2023-08-12T02:53:54;11.48;;;7.90;;
52542;SDS011;38449;52.696;6.186;2023-08-12T02:56:22;15.52;;;8.43;;
52542;SDS011;38449;52.696;6.186;2023-08-12T02:58:50;12.02;;;7.70;;
52542;SDS011;38449;52.696;6.186;2023-08-12T03:01:18;11.02;;;7.82;;
52542;SDS011;38449;52.696;6.186;2023-08-12T03:03:46;11.48;;;7.95;;
52542;SDS011;38449;52.696;6.186;2023-08-12T03:06:12;12.27;;;8.55;;
52542;SDS011;38449;52.696;6.186;2023-08-12T03:08:39;11.25;;;8.90;;
52542;SDS011;38449;52.696;6.186;2023-08-12T03:11:06;11.25;;;7.95;;
52542;SDS011;38449;52.696;6.186;2023-08-12T03:13:46;9.80;;;7.78;;
52542;SDS011;38449;52.696;6.186;2023-08-12T03:16:14;11.27;;;8.70;;
52542;SDS011;38449;52.696;6.186;2023-08-12T03:18:40;13.95;;;8.88;;
52542;SDS011;38449;52.696;6.186;2023-08-12T03:21:08;16.90;;;8.95;;
52542;SDS011;38449;52.696;6.186;2023-08-12T03:23:37;13.40;;;8.60;;
52542;SDS011;38449;52.696;6.186;2023-08-12T03:26:04;12.18;;;8.60;;
52542;SDS011;38449;52.696;6.186;2023-08-12T03:28:31;14.52;;;8.88;;
52542;SDS011;38449;52.696;6.186;2023-08-12T03:30:57;13.57;;;8.88;;
52542;SDS011;38449;52.696;6.186;2023-08-12T03:33:24;12.20;;;8.07;;
52542;SDS011;38449;52.696;6.186;2023-08-12T03:35:51;10.90;;;8.20;;
52542;SDS011;38449;52.696;6.186;2023-08-12T03:38:21;13.98;;;8.13;;
52542;SDS011;38449;52.696;6.186;2023-08-12T03:40:48;11.35;;;8.45;;
52542;SDS011;38449;52.696;6.186;2023-08-12T03:43:17;14.60;;;9.57;;
52542;SDS011;38449;52.696;6.186;2023-08-12T03:45:47;12.50;;;8.95;;
52542;SDS011;38449;52.696;6.186;2023-08-12T03:48:15;12.90;;;8.82;;
52542;SDS011;38449;52.696;6.186;2023-08-12T03:50:42;16.27;;;9.75;;
52542;SDS011;38449;52.696;6.186;2023-08-12T03:53:11;13.52;;;9.35;;
52542;SDS011;38449;52.696;6.186;2023-08-12T03:55:38;14.38;;;9.82;;
52542;SDS011;38449;52.696;6.186;2023-08-12T03:58:05;12.73;;;9.88;;
52542;SDS011;38449;52.696;6.186;2023-08-12T04:00:31;14.68;;;9.82;;
52542;SDS011;38449;52.696;6.186;2023-08-12T04:02:58;15.48;;;9.70;;
52542;SDS011;38449;52.696;6.186;2023-08-12T04:05:24;15.18;;;10.23;;
52542;SDS011;38449;52.696;6.186;2023-08-12T04:08:01;14.68;;;10.15;;
52542;SDS011;38449;52.696;6.186;2023-08-12T04:10:27;18.65;;;10.75;;
52542;SDS011;38449;52.696;6.186;2023-08-12T04:12:54;13.93;;;11.15;;
52542;SDS011;38449;52.696;6.186;2023-08-12T04:15:20;17.67;;;11.75;;
52542;SDS011;38449;52.696;6.186;2023-08-12T04:17:48;14.80;;;10.65;;
52542;SDS011;38449;52.696;6.186;2023-08-12T04:20:15;16.63;;;11.57;;
52542;SDS011;38449;52.696;6.186;2023-08-12T04:22:43;15.90;;;12.32;;
52542;SDS011;38449;52.696;6.186;2023-08-12T04:25:09;17.25;;;11.00;;
52542;SDS011;38449;52.696;6.186;2023-08-12T04:27:36;18.65;;;12.15;;
52542;SDS011;38449;52.696;6.186;2023-08-12T04:30:03;18.20;;;11.73;;
52542;SDS011;38449;52.696;6.186;2023-08-12T04:32:30;19.42;;;12.63;;
52542;SDS011;38449;52.696;6.186;2023-08-12T04:34:56;18.65;;;12.18;;
52542;SDS011;38449;52.696;6.186;2023-08-12T04:37:23;20.05;;;13.50;;
52542;SDS011;38449;52.696;6.186;2023-08-12T04:39:50;18.30;;;12.52;;
52542;SDS011;38449;52.696;6.186;2023-08-12T04:42:16;19.85;;;13.07;;
52542;SDS011;38449;52.696;6.186;2023-08-12T04:44:42;20.63;;;12.38;;
52542;SDS011;38449;52.696;6.186;2023-08-12T04:47:09;19.63;;;13.52;;
52542;SDS011;38449;52.696;6.186;2023-08-12T04:49:35;17.73;;;12.80;;
52542;SDS011;38449;52.696;6.186;2023-08-12T04:52:02;21.75;;;13.48;;
52542;SDS011;38449;52.696;6.186;2023-08-12T04:54:28;21.27;;;13.52;;
52542;SDS011;38449;52.696;6.186;2023-08-12T04:56:54;19.05;;;13.38;;
52542;SDS011;38449;52.696;6.186;2023-08-12T04:59:21;17.77;;;13.73;;
52542;SDS011;38449;52.696;6.186;2023-08-12T05:01:48;18.38;;;13.00;;
52542;SDS011;38449;52.696;6.186;2023-08-12T05:04:17;25.15;;;13.23;;
52542;SDS011;38449;52.696;6.186;2023-08-12T05:06:43;21.30;;;13.82;;
52542;SDS011;38449;52.696;6.186;2023-08-12T05:09:09;19.50;;;13.95;;
52542;SDS011;38449;52.696;6.186;2023-08-12T05:11:35;21.38;;;14.38;;
52542;SDS011;38449;52.696;6.186;2023-08-12T05:14:02;22.75;;;13.43;;
52542;SDS011;38449;52.696;6.186;2023-08-12T05:16:28;21.00;;;14.05;;
52542;SDS011;38449;52.696;6.186;2023-08-12T05:18:54;20.70;;;14.40;;
52542;SDS011;38449;52.696;6.186;2023-08-12T05:21:21;20.92;;;14.20;;
52542;SDS011;38449;52.696;6.186;2023-08-12T05:23:48;21.70;;;13.63;;
52542;SDS011;38449;52.696;6.186;2023-08-12T05:26:14;23.40;;;14.80;;
52542;SDS011;38449;52.696;6.186;2023-08-12T05:28:41;21.40;;;14.38;;
52542;SDS011;38449;52.696;6.186;2023-08-12T05:31:07;19.73;;;14.13;;
52542;SDS011;38449;52.696;6.186;2023-08-12T05:33:34;26.77;;;15.32;;
52542;SDS011;38449;52.696;6.186;2023-08-12T05:36:02;20.90;;;14.38;;
52542;SDS011;38449;52.696;6.186;2023-08-12T05:38:44;22.33;;;14.85;;
52542;SDS011;38449;52.696;6.186;2023-08-12T05:41:10;21.95;;;15.90;;
52542;SDS011;38449;52.696;6.186;2023-08-12T05:43:36;23.65;;;16.27;;
52542;SDS011;38449;52.696;6.186;2023-08-12T05:46:03;23.58;;;16.77;;
52542;SDS011;38449;52.696;6.186;2023-08-12T05:48:29;22.10;;;16.73;;
52542;SDS011;38449;52.696;6.186;2023-08-12T05:50:56;23.40;;;17.73;;
52542;SDS011;38449;52.696;6.186;2023-08-12T05:53:22;28.38;;;18.63;;
52542;SDS011;38449;52.696;6.186;2023-08-12T05:55:49;27.88;;;18.52;;
52542;SDS011;38449;52.696;6.186;2023-08-12T05:58:15;27.38;;;17.45;;
52542;SDS011;38449;52.696;6.186;2023-08-12T06:00:41;26.20;;;18.88;;
52542;SDS011;38449;52.696;6.186;2023-08-12T06:03:11;25.08;;;19.08;;
52542;SDS011;38449;52.696;6.186;2023-08-12T06:05:38;26.05;;;18.88;;
52542;SDS011;38449;52.696;6.186;2023-08-12T06:08:05;27.88;;;18.05;;
52542;SDS011;38449;52.696;6.186;2023-08-12T06:10:33;26.38;;;18.13;;
52542;SDS011;38449;52.696;6.186;2023-08-12T06:12:59;23.95;;;18.75;;
52542;SDS011;38449;52.696;6.186;2023-08-12T06:15:25;26.13;;;19.08;;
52542;SDS011;38449;52.696;6.186;2023-08-12T06:17:52;25.33;;;19.52;;
52542;SDS011;38449;52.696;6.186;2023-08-12T06:20:18;27.50;;;20.27;;
52542;SDS011;38449;52.696;6.186;2023-08-12T06:22:44;29.40;;;20.08;;
52542;SDS011;38449;52.696;6.186;2023-08-12T06:25:10;29.52;;;20.08;;
52542;SDS011;38449;52.696;6.186;2023-08-12T06:27:37;27.98;;;21.35;;
52542;SDS011;38449;52.696;6.186;2023-08-12T06:30:03;27.83;;;19.83;;
52542;SDS011;38449;52.696;6.186;2023-08-12T06:32:31;28.17;;;22.08;;
52542;SDS011;38449;52.696;6.186;2023-08-12T06:34:57;29.08;;;20.83;;
52542;SDS011;38449;52.696;6.186;2023-08-12T06:37:23;28.48;;;20.88;;
52542;SDS011;38449;52.696;6.186;2023-08-12T06:39:49;28.23;;;19.58;;
52542;SDS011;38449;52.696;6.186;2023-08-12T06:42:17;28.48;;;20.42;;
52542;SDS011;38449;52.696;6.186;2023-08-12T06:44:44;25.92;;;20.58;;
52542;SDS011;38449;52.696;6.186;2023-08-12T06:47:11;26.35;;;21.05;;
52542;SDS011;38449;52.696;6.186;2023-08-12T06:49:37;26.33;;;20.63;;
52542;SDS011;38449;52.696;6.186;2023-08-12T06:52:04;29.90;;;21.17;;
52542;SDS011;38449;52.696;6.186;2023-08-12T06:54:32;26.13;;;19.92;;
52542;SDS011;38449;52.696;6.186;2023-08-12T06:56:58;23.17;;;18.25;;
52542;SDS011;38449;52.696;6.186;2023-08-12T06:59:24;30.38;;;21.45;;
52542;SDS011;38449;52.696;6.186;2023-08-12T07:01:52;29.30;;;19.88;;
52542;SDS011;38449;52.696;6.186;2023-08-12T07:04:18;25.70;;;20.10;;
52542;SDS011;38449;52.696;6.186;2023-08-12T07:06:44;29.70;;;21.40;;
52542;SDS011;38449;52.696;6.186;2023-08-12T07:09:11;27.52;;;20.10;;
52542;SDS011;38449;52.696;6.186;2023-08-12T07:11:37;25.48;;;18.83;;
52542;SDS011;38449;52.696;6.186;2023-08-12T07:14:04;24.83;;;19.73;;
52542;SDS011;38449;52.696;6.186;2023-08-12T07:16:30;27.48;;;19.42;;
52542;SDS011;38449;52.696;6.186;2023-08-12T07:18:56;26.85;;;19.77;;
52542;SDS011;38449;52.696;6.186;2023-08-12T07:21:23;27.90;;;20.30;;
52542;SDS011;38449;52.696;6.186;2023-08-12T07:23:49;29.65;;;20.42;;
52542;SDS011;38449;52.696;6.186;2023-08-12T07:26:15;26.92;;;19.25;;
52542;SDS011;38449;52.696;6.186;2023-08-12T07:28:42;25.88;;;19.08;;
52542;SDS011;38449;52.696;6.186;2023-08-12T07:31:08;26.08;;;19.08;;
52542;SDS011;38449;52.696;6.186;2023-08-12T07:33:35;29.15;;;19.67;;
52542;SDS011;38449;52.696;6.186;2023-08-12T07:36:02;24.90;;;19.33;;
52542;SDS011;38449;52.696;6.186;2023-08-12T07:38:28;27.15;;;20.13;;
52542;SDS011;38449;52.696;6.186;2023-08-12T07:40:54;28.50;;;19.42;;
52542;SDS011;38449;52.696;6.186;2023-08-12T07:43:21;23.55;;;17.98;;
52542;SDS011;38449;52.696;6.186;2023-08-12T07:45:51;25.95;;;19.35;;
52542;SDS011;38449;52.696;6.186;2023-08-12T07:48:21;29.08;;;18.38;;
52542;SDS011;38449;52.696;6.186;2023-08-12T07:50:54;25.92;;;18.23;;
52542;SDS011;38449;52.696;6.186;2023-08-12T07:53:22;27.52;;;18.20;;
52542;SDS011;38449;52.696;6.186;2023-08-12T07:55:48;24.30;;;18.00;;
52542;SDS011;38449;52.696;6.186;2023-08-12T07:58:15;23.55;;;17.50;;
52542;SDS011;38449;52.696;6.186;2023-08-12T08:00:41;24.90;;;18.05;;
52542;SDS011;38449;52.696;6.186;2023-08-12T08:03:08;25.55;;;17.63;;
52542;SDS011;38449;52.696;6.186;2023-08-12T08:05:34;24.90;;;18.88;;
52542;SDS011;38449;52.696;6.186;2023-08-12T08:08:01;20.17;;;17.13;;
52542;SDS011;38449;52.696;6.186;2023-08-12T08:10:27;21.50;;;16.00;;
52542;SDS011;38449;52.696;6.186;2023-08-12T08:12:53;19.38;;;15.23;;
52542;SDS011;38449;52.696;6.186;2023-08-12T08:15:20;17.98;;;13.95;;
52542;SDS011;38449;52.696;6.186;2023-08-12T08:17:46;19.77;;;13.32;;
52542;SDS011;38449;52.696;6.186;2023-08-12T08:20:12;15.13;;;12.55;;
52542;SDS011;38449;52.696;6.186;2023-08-12T08:22:53;14.88;;;11.20;;
52542;SDS011;38449;52.696;6.186;2023-08-12T08:25:21;12.43;;;9.80;;
52542;SDS011;38449;52.696;6.186;2023-08-12T08:27:47;10.32;;;8.65;;
52542;SDS011;38449;52.696;6.186;2023-08-12T08:30:15;9.93;;;7.72;;
52542;SDS011;38449;52.696;6.186;2023-08-12T08:32:42;10.35;;;7.22;;
52542;SDS011;38449;52.696;6.186;2023-08-12T08:35:08;9.45;;;6.28;;
52542;SDS011;38449;52.696;6.186;2023-08-12T08:37:35;8.55;;;6.25;;
52542;SDS011;38449;52.696;6.186;2023-08-12T08:40:01;11.25;;;6.78;;
52542;SDS011;38449;52.696;6.186;2023-08-12T08:42:29;8.68;;;6.43;;
52542;SDS011;38449;52.696;6.186;2023-08-12T08:44:56;9.13;;;6.57;;
52542;SDS011;38449;52.696;6.186;2023-08-12T08:47:26;7.07;;;6.03;;
52542;SDS011;38449;52.696;6.186;2023-08-12T08:49:54;9.60;;;6.55;;
52542;SDS011;38449;52.696;6.186;2023-08-12T08:52:29;10.50;;;6.88;;
52542;SDS011;38449;52.696;6.186;2023-08-12T08:54:57;8.30;;;5.85;;
52542;SDS011;38449;52.696;6.186;2023-08-12T08:57:26;9.05;;;6.50;;
52542;SDS011;38449;52.696;6.186;2023-08-12T08:59:53;7.72;;;6.22;;
52542;SDS011;38449;52.696;6.186;2023-08-12T09:02:20;7.05;;;5.78;;
52542;SDS011;38449;52.696;6.186;2023-08-12T09:04:47;8.27;;;6.25;;
52542;SDS011;38449;52.696;6.186;2023-08-12T09:07:16;8.25;;;5.32;;
52542;SDS011;38449;52.696;6.186;2023-08-12T09:09:45;7.32;;;5.35;;
52542;SDS011;38449;52.696;6.186;2023-08-12T09:12:14;5.68;;;4.57;;
52542;SDS011;38449;52.696;6.186;2023-08-12T09:14:42;6.47;;;4.22;;
52542;SDS011;38449;52.696;6.186;2023-08-12T09:17:10;6.30;;;4.38;;
52542;SDS011;38449;52.696;6.186;2023-08-12T09:19:36;6.55;;;4.10;;
52542;SDS011;38449;52.696;6.186;2023-08-12T09:22:03;6.75;;;4.07;;
52542;SDS011;38449;52.696;6.186;2023-08-12T09:24:31;8.68;;;3.88;;
52542;SDS011;38449;52.696;6.186;2023-08-12T09:26:57;6.28;;;3.60;;
52542;SDS011;38449;52.696;6.186;2023-08-12T09:29:26;5.43;;;3.75;;
52542;SDS011;38449;52.696;6.186;2023-08-12T09:32:13;5.88;;;3.72;;
52542;SDS011;38449;52.696;6.186;2023-08-12T09:34:53;4.82;;;3.78;;
52542;SDS011;38449;52.696;6.186;2023-08-12T09:37:22;3.95;;;3.13;;
52542;SDS011;38449;52.696;6.186;2023-08-12T09:39:50;3.95;;;3.30;;
52542;SDS011;38449;52.696;6.186;2023-08-12T09:42:18;4.57;;;3.55;;
52542;SDS011;38449;52.696;6.186;2023-08-12T09:44:45;6.15;;;3.50;;
52542;SDS011;38449;52.696;6.186;2023-08-12T09:47:11;3.63;;;3.22;;
52542;SDS011;38449;52.696;6.186;2023-08-12T09:49:38;5.03;;;2.97;;
52542;SDS011;38449;52.696;6.186;2023-08-12T09:52:06;4.15;;;3.15;;
52542;SDS011;38449;52.696;6.186;2023-08-12T09:54:34;4.80;;;3.17;;
52542;SDS011;38449;52.696;6.186;2023-08-12T09:57:01;4.25;;;3.13;;
52542;SDS011;38449;52.696;6.186;2023-08-12T09:59:33;3.83;;;2.67;;
52542;SDS011;38449;52.696;6.186;2023-08-12T10:02:04;3.38;;;2.17;;
52542;SDS011;38449;52.696;6.186;2023-08-12T10:04:39;3.47;;;2.40;;
52542;SDS011;38449;52.696;6.186;2023-08-12T10:07:11;3.15;;;2.22;;
52542;SDS011;38449;52.696;6.186;2023-08-12T10:09:39;3.63;;;2.63;;
52542;SDS011;38449;52.696;6.186;2023-08-12T10:12:07;3.55;;;2.22;;
52542;SDS011;38449;52.696;6.186;2023-08-12T10:14:35;3.25;;;2.67;;
52542;SDS011;38449;52.696;6.186;2023-08-12T10:17:01;3.22;;;2.55;;
52542;SDS011;38449;52.696;6.186;2023-08-12T10:19:28;4.07;;;2.50;;
52542;SDS011;38449;52.696;6.186;2023-08-12T10:21:59;4.25;;;2.70;;
52542;SDS011;38449;52.696;6.186;2023-08-12T10:26:55;2.63;;;2.30;;
52542;SDS011;38449;52.696;6.186;2023-08-12T10:29:24;3.92;;;2.42;;
52542;SDS011;38449;52.696;6.186;2023-08-12T10:31:51;4.75;;;3.03;;
52542;SDS011;38449;52.696;6.186;2023-08-12T10:34:21;3.05;;;2.70;;
52542;SDS011;38449;52.696;6.186;2023-08-12T10:36:53;3.13;;;2.40;;
52542;SDS011;38449;52.696;6.186;2023-08-12T10:39:27;3.10;;;2.00;;
52542;SDS011;38449;52.696;6.186;2023-08-12T10:41:56;3.42;;;1.80;;
52542;SDS011;38449;52.696;6.186;2023-08-12T10:44:26;3.30;;;1.80;;
52542;SDS011;38449;52.696;6.186;2023-08-12T10:47:08;3.67;;;1.67;;
52542;SDS011;38449;52.696;6.186;2023-08-12T10:58:03;2.38;;;1.50;;
52542;SDS011;38449;52.696;6.186;2023-08-12T11:00:34;2.47;;;1.65;;
52542;SDS011;38449;52.696;6.186;2023-08-12T11:03:02;2.03;;;1.50;;
52542;SDS011;38449;52.696;6.186;2023-08-12T11:05:38;2.50;;;1.70;;
52542;SDS011;38449;52.696;6.186;2023-08-12T11:08:04;2.70;;;1.98;;
52542;SDS011;38449;52.696;6.186;2023-08-12T11:10:34;4.43;;;2.10;;
52542;SDS011;38449;52.696;6.186;2023-08-12T11:13:01;3.17;;;2.10;;
52542;SDS011;38449;52.696;6.186;2023-08-12T11:15:40;3.35;;;1.83;;
52542;SDS011;38449;52.696;6.186;2023-08-12T11:18:13;3.75;;;2.13;;
52542;SDS011;38449;52.696;6.186;2023-08-12T11:20:47;5.75;;;2.60;;
52542;SDS011;38449;52.696;6.186;2023-08-12T11:23:15;4.85;;;2.83;;
52542;SDS011;38449;52.696;6.186;2023-08-12T11:25:43;4.13;;;2.63;;
52542;SDS011;38449;52.696;6.186;2023-08-12T11:28:17;4.97;;;2.60;;
52542;SDS011;38449;52.696;6.186;2023-08-12T11:30:45;6.05;;;3.03;;
52542;SDS011;38449;52.696;6.186;2023-08-12T11:33:11;4.88;;;2.85;;
52542;SDS011;38449;52.696;6.186;2023-08-12T11:35:38;6.40;;;3.05;;
52542;SDS011;38449;52.696;6.186;2023-08-12T11:38:05;5.00;;;3.30;;
52542;SDS011;38449;52.696;6.186;2023-08-12T11:40:33;6.93;;;3.22;;
52542;SDS011;38449;52.696;6.186;2023-08-12T11:43:01;4.60;;;2.58;;
52542;SDS011;38449;52.696;6.186;2023-08-12T11:45:27;4.82;;;2.95;;
52542;SDS011;38449;52.696;6.186;2023-08-12T11:47:54;5.35;;;2.83;;
52542;SDS011;38449;52.696;6.186;2023-08-12T11:50:21;6.05;;;2.53;;
52542;SDS011;38449;52.696;6.186;2023-08-12T11:52:49;6.53;;;2.78;;
52542;SDS011;38449;52.696;6.186;2023-08-12T11:55:16;5.40;;;2.50;;
52542;SDS011;38449;52.696;6.186;2023-08-12T11:57:43;5.07;;;2.55;;
52542;SDS011;38449;52.696;6.186;2023-08-12T12:00:12;6.22;;;2.80;;
52542;SDS011;38449;52.696;6.186;2023-08-12T12:05:32;4.97;;;2.33;;
52542;SDS011;38449;52.696;6.186;2023-08-12T12:08:01;7.65;;;2.33;;
52542;SDS011;38449;52.696;6.186;2023-08-12T12:10:32;6.90;;;2.40;;
52542;SDS011;38449;52.696;6.186;2023-08-12T12:12:59;9.00;;;2.83;;
52542;SDS011;38449;52.696;6.186;2023-08-12T12:15:28;5.90;;;2.17;;
52542;SDS011;38449;52.696;6.186;2023-08-12T12:17:54;6.15;;;2.60;;
52542;SDS011;38449;52.696;6.186;2023-08-12T12:20:20;5.78;;;2.53;;
52542;SDS011;38449;52.696;6.186;2023-08-12T12:22:47;4.72;;;2.38;;
52542;SDS011;38449;52.696;6.186;2023-08-12T12:25:15;5.03;;;2.20;;
52542;SDS011;38449;52.696;6.186;2023-08-12T12:27:45;6.25;;;2.40;;
52542;SDS011;38449;52.696;6.186;2023-08-12T12:30:13;5.95;;;2.50;;
52542;SDS011;38449;52.696;6.186;2023-08-12T12:32:40;6.43;;;2.17;;
52542;SDS011;38449;52.696;6.186;2023-08-12T12:35:07;5.85;;;2.05;;
52542;SDS011;38449;52.696;6.186;2023-08-12T12:37:34;7.50;;;2.75;;
52542;SDS011;38449;52.696;6.186;2023-08-12T12:40:02;6.53;;;2.50;;
52542;SDS011;38449;52.696;6.186;2023-08-12T12:42:29;7.40;;;2.38;;
52542;SDS011;38449;52.696;6.186;2023-08-12T12:44:56;7.15;;;2.47;;
52542;SDS011;38449;52.696;6.186;2023-08-12T12:47:22;6.72;;;2.70;;
52542;SDS011;38449;52.696;6.186;2023-08-12T12:49:49;5.45;;;2.55;;
52542;SDS011;38449;52.696;6.186;2023-08-12T12:52:15;5.75;;;2.58;;
52542;SDS011;38449;52.696;6.186;2023-08-12T12:54:42;8.32;;;3.17;;
52542;SDS011;38449;52.696;6.186;2023-08-12T12:57:09;9.80;;;2.83;;
52542;SDS011;38449;52.696;6.186;2023-08-12T12:59:35;5.95;;;2.60;;
52542;SDS011;38449;52.696;6.186;2023-08-12T13:02:02;6.03;;;2.30;;
52542;SDS011;38449;52.696;6.186;2023-08-12T13:04:28;8.77;;;3.03;;
52542;SDS011;38449;52.696;6.186;2023-08-12T13:06:55;7.88;;;2.60;;
52542;SDS011;38449;52.696;6.186;2023-08-12T13:09:21;8.25;;;2.55;;
52542;SDS011;38449;52.696;6.186;2023-08-12T13:11:47;7.55;;;2.63;;
52542;SDS011;38449;52.696;6.186;2023-08-12T13:14:17;8.32;;;2.60;;
52542;SDS011;38449;52.696;6.186;2023-08-12T13:16:46;7.28;;;2.55;;
52542;SDS011;38449;52.696;6.186;2023-08-12T13:19:12;8.20;;;2.95;;
52542;SDS011;38449;52.696;6.186;2023-08-12T13:21:41;6.18;;;2.40;;
52542;SDS011;38449;52.696;6.186;2023-08-12T13:24:07;7.40;;;2.50;;
52542;SDS011;38449;52.696;6.186;2023-08-12T13:26:34;7.47;;;2.10;;
52542;SDS011;38449;52.696;6.186;2023-08-12T13:29:00;7.47;;;2.40;;
52542;SDS011;38449;52.696;6.186;2023-08-12T13:31:27;7.35;;;2.50;;
52542;SDS011;38449;52.696;6.186;2023-08-12T13:33:53;8.93;;;2.83;;
52542;SDS011;38449;52.696;6.186;2023-08-12T13:36:19;5.97;;;2.40;;
52542;SDS011;38449;52.696;6.186;2023-08-12T13:38:46;9.23;;;2.50;;
52542;SDS011;38449;52.696;6.186;2023-08-12T13:41:12;8.00;;;2.30;;
52542;SDS011;38449;52.696;6.186;2023-08-12T13:43:38;5.50;;;2.20;;
52542;SDS011;38449;52.696;6.186;2023-08-12T13:46:05;7.07;;;2.63;;
52542;SDS011;38449;52.696;6.186;2023-08-12T13:48:31;4.90;;;2.65;;
52542;SDS011;38449;52.696;6.186;2023-08-12T13:50:58;9.57;;;3.10;;
52542;SDS011;38449;52.696;6.186;2023-08-12T13:53:24;6.68;;;2.17;;
52542;SDS011;38449;52.696;6.186;2023-08-12T13:55:51;10.20;;;2.60;;
52542;SDS011;38449;52.696;6.186;2023-08-12T13:58:17;9.60;;;2.95;;
52542;SDS011;38449;52.696;6.186;2023-08-12T14:00:44;6.82;;;2.45;;
52542;SDS011;38449;52.696;6.186;2023-08-12T14:03:10;6.65;;;2.22;;
52542;SDS011;38449;52.696;6.186;2023-08-12T14:05:36;7.88;;;2.58;;
52542;SDS011;38449;52.696;6.186;2023-08-12T14:08:02;8.45;;;2.47;;
52542;SDS011;38449;52.696;6.186;2023-08-12T14:10:29;6.60;;;2.35;;
52542;SDS011;38449;52.696;6.186;2023-08-12T14:12:55;6.45;;;2.72;;
52542;SDS011;38449;52.696;6.186;2023-08-12T14:15:22;6.93;;;2.40;;
52542;SDS011;38449;52.696;6.186;2023-08-12T14:17:48;8.05;;;2.35;;
52542;SDS011;38449;52.696;6.186;2023-08-12T14:20:14;7.53;;;2.67;;
52542;SDS011;38449;52.696;6.186;2023-08-12T14:22:41;7.18;;;2.42;;
52542;SDS011;38449;52.696;6.186;2023-08-12T14:25:09;6.60;;;2.28;;
52542;SDS011;38449;52.696;6.186;2023-08-12T14:27:36;7.07;;;2.38;;
52542;SDS011;38449;52.696;6.186;2023-08-12T14:30:03;7.53;;;2.60;;
52542;SDS011;38449;52.696;6.186;2023-08-12T14:32:29;7.82;;;2.28;;
52542;SDS011;38449;52.696;6.186;2023-08-12T14:34:56;5.57;;;2.17;;
52542;SDS011;38449;52.696;6.186;2023-08-12T14:37:22;5.32;;;2.05;;
52542;SDS011;38449;52.696;6.186;2023-08-12T14:39:48;7.18;;;2.40;;
52542;SDS011;38449;52.696;6.186;2023-08-12T14:42:15;6.15;;;2.28;;
52542;SDS011;38449;52.696;6.186;2023-08-12T14:44:41;8.32;;;2.55;;
52542;SDS011;38449;52.696;6.186;2023-08-12T14:47:08;7.32;;;2.53;;
52542;SDS011;38449;52.696;6.186;2023-08-12T14:49:34;8.52;;;2.58;;
52542;SDS011;38449;52.696;6.186;2023-08-12T14:52:00;9.35;;;2.50;;
52542;SDS011;38449;52.696;6.186;2023-08-12T14:54:26;8.63;;;2.63;;